createdAt,value
2023-08-08T00:01:50.661Z,92.40
2023-08-08T00:04:18.595Z,92.40
2023-08-08T00:06:46.593Z,92.50
2023-08-08T00:09:15.773Z,92.50
2023-08-08T00:11:44.107Z,92.60
2023-08-08T00:14:11.987Z,92.60
2023-08-08T00:16:41.360Z,92.70
2023-08-08T00:19:12.227Z,92.80
2023-08-08T00:21:40.248Z,92.70
2023-08-08T00:24:08.646Z,92.80
2023-08-08T00:26:36.549Z,92.90
2023-08-08T00:29:04.553Z,93.00
2023-08-08T00:31:32.567Z,93.00
2023-08-08T00:34:01.862Z,93.00
2023-08-08T00:36:30.199Z,93.00
2023-08-08T00:39:01.059Z,93.00
2023-08-08T00:41:29.213Z,93.00
2023-08-08T00:43:58.375Z,93.10
2023-08-08T00:46:26.469Z,93.20
2023-08-08T00:48:54.703Z,93.10
2023-08-08T00:51:25.186Z,93.20
2023-08-08T00:53:54.373Z,93.30
2023-08-08T00:56:22.517Z,93.60
2023-08-08T00:58:51.640Z,93.20
2023-08-08T01:01:20.556Z,93.30
2023-08-08T01:03:48.878Z,93.40
2023-08-08T01:06:25.292Z,93.40
2023-08-08T01:08:59.720Z,93.60
2023-08-08T01:11:31.604Z,93.60
2023-08-08T01:14:03.486Z,93.50
2023-08-08T01:16:32.745Z,93.50
2023-08-08T01:19:01.308Z,93.50
2023-08-08T01:21:32.854Z,93.50
2023-08-08T01:24:09.432Z,93.60
2023-08-08T01:26:38.983Z,93.70
2023-08-08T01:29:07.268Z,93.60
2023-08-08T01:31:35.354Z,93.90
2023-08-08T01:34:03.677Z,93.60
2023-08-08T01:36:40.983Z,93.60
2023-08-08T01:39:12.357Z,93.70
2023-08-08T01:41:43.576Z,93.70
2023-08-08T01:44:11.769Z,93.80
2023-08-08T01:46:40.510Z,94.00
2023-08-08T01:49:08.668Z,93.70
2023-08-08T01:51:36.651Z,93.80
2023-08-08T01:54:04.688Z,93.80
2023-08-08T01:56:32.673Z,93.80
2023-08-08T01:59:01.958Z,93.80
2023-08-08T02:01:30.343Z,94.30
2023-08-08T02:03:58.727Z,93.90
2023-08-08T02:06:26.650Z,93.90
2023-08-08T02:08:54.714Z,94.00
2023-08-08T02:11:23.667Z,94.00
2023-08-08T02:13:51.614Z,94.10
2023-08-08T02:16:21.047Z,94.00
2023-08-08T02:18:49.420Z,94.10
2023-08-08T02:21:17.376Z,93.90
2023-08-08T02:23:45.361Z,94.00
2023-08-08T02:26:13.278Z,94.00
2023-08-08T02:28:42.126Z,94.00
2023-08-08T02:31:13.198Z,94.20
2023-08-08T02:33:42.494Z,94.30
2023-08-08T02:36:10.521Z,94.30
2023-08-08T02:38:38.521Z,94.10
2023-08-08T02:41:06.560Z,94.20
2023-08-08T02:43:37.231Z,94.30
2023-08-08T02:46:05.390Z,94.30
2023-08-08T02:48:33.473Z,94.30
2023-08-08T02:51:02.753Z,94.30
2023-08-08T02:53:30.698Z,94.30
2023-08-08T02:55:58.806Z,94.30
2023-08-08T02:58:26.738Z,94.20
2023-08-08T03:00:54.675Z,94.30
2023-08-08T03:03:22.668Z,94.30
2023-08-08T03:05:50.552Z,94.40
2023-08-08T03:08:20.277Z,94.30
2023-08-08T03:10:48.484Z,94.50
2023-08-08T03:13:16.557Z,94.40
2023-08-08T03:15:45.623Z,94.30
2023-08-08T03:18:13.640Z,94.40
2023-08-08T03:20:41.672Z,94.40
2023-08-08T03:23:12.518Z,94.40
2023-08-08T03:25:41.860Z,94.40
2023-08-08T03:28:09.939Z,94.50
2023-08-08T03:30:39.202Z,94.50
2023-08-08T03:33:07.600Z,94.50
2023-08-08T03:35:35.779Z,94.40
2023-08-08T03:38:04.750Z,94.40
2023-08-08T03:40:32.805Z,94.50
2023-08-08T03:43:02.142Z,94.50
2023-08-08T03:45:31.241Z,94.60
2023-08-08T03:47:59.188Z,94.60
2023-08-08T03:50:27.421Z,94.60
2023-08-08T03:52:55.368Z,94.60
2023-08-08T03:55:23.320Z,94.60
2023-08-08T03:57:51.234Z,94.60
2023-08-08T04:00:20.772Z,94.60
2023-08-08T04:02:48.746Z,94.70
2023-08-08T04:05:16.905Z,94.60
2023-08-08T04:07:45.280Z,94.60
2023-08-08T04:10:14.256Z,94.60
2023-08-08T04:12:42.232Z,94.60
2023-08-08T04:15:10.977Z,94.60
2023-08-08T04:17:40.389Z,94.60
2023-08-08T04:20:11.114Z,94.60
2023-08-08T04:22:39.120Z,94.60
2023-08-08T04:25:08.971Z,94.40
2023-08-08T04:27:37.083Z,94.50
2023-08-08T04:30:05.883Z,94.40
2023-08-08T04:32:33.864Z,94.40
2023-08-08T04:35:03.262Z,94.60
2023-08-08T04:37:31.182Z,94.50
2023-08-08T04:39:59.481Z,94.50
2023-08-08T04:42:29.534Z,94.40
2023-08-08T04:44:57.649Z,94.60
2023-08-08T04:47:25.635Z,94.60
2023-08-08T04:49:53.701Z,94.60
2023-08-08T04:52:22.956Z,94.70
2023-08-08T04:54:50.923Z,94.80
2023-08-08T04:57:18.957Z,94.80
2023-08-08T04:59:46.889Z,94.80
2023-08-08T05:02:14.797Z,94.80
2023-08-08T05:04:42.779Z,94.80
2023-08-08T05:07:10.834Z,94.80
2023-08-08T05:09:40.153Z,94.80
2023-08-08T05:12:08.865Z,94.90
2023-08-08T05:14:36.947Z,95.00
2023-08-08T05:17:05.286Z,95.00
2023-08-08T05:19:33.292Z,95.10
2023-08-08T05:22:02.024Z,95.10
2023-08-08T05:24:30.491Z,95.20
2023-08-08T05:27:01.135Z,95.00
2023-08-08T05:29:29.073Z,95.20
2023-08-08T05:31:57.012Z,95.00
2023-08-08T05:34:26.020Z,95.00
2023-08-08T05:37:10.093Z,95.00
2023-08-08T05:39:41.941Z,95.00
2023-08-08T05:42:11.283Z,94.90
2023-08-08T05:44:39.276Z,94.90
2023-08-08T05:47:08.507Z,94.90
2023-08-08T05:49:36.625Z,95.00
2023-08-08T05:52:05.000Z,94.90
2023-08-08T05:54:33.054Z,94.90
2023-08-08T05:57:01.280Z,95.00
2023-08-08T05:59:30.916Z,95.00
2023-08-08T06:02:00.226Z,94.60
2023-08-08T06:04:28.746Z,94.60
2023-08-08T06:06:56.640Z,94.50
2023-08-08T06:09:24.544Z,94.40
2023-08-08T06:11:52.503Z,94.40
2023-08-08T06:14:20.385Z,94.30
2023-08-08T06:16:49.823Z,94.10
2023-08-08T06:19:17.851Z,93.80
2023-08-08T06:21:46.020Z,93.70
2023-08-08T06:24:14.043Z,93.60
2023-08-08T06:26:41.982Z,93.40
2023-08-08T06:29:10.766Z,93.40
2023-08-08T06:31:38.987Z,93.30
2023-08-08T06:34:10.229Z,93.70
2023-08-08T06:36:38.424Z,93.00
2023-08-08T06:39:06.828Z,92.80
2023-08-08T06:41:34.864Z,92.70
2023-08-08T06:44:02.933Z,92.80
2023-08-08T06:46:31.045Z,92.70
2023-08-08T06:49:00.709Z,92.60
2023-08-08T06:51:32.650Z,92.40
2023-08-08T06:54:00.700Z,92.40
2023-08-08T06:56:31.092Z,92.40
2023-08-08T06:58:59.189Z,92.10
2023-08-08T07:01:27.459Z,91.90
2023-08-08T07:03:55.529Z,91.80
2023-08-08T07:06:23.485Z,91.50
2023-08-08T07:08:52.934Z,91.50
2023-08-08T07:11:21.752Z,91.60
2023-08-08T07:13:50.098Z,91.60
2023-08-08T07:16:18.104Z,91.20
2023-08-08T07:18:46.758Z,91.20
2023-08-08T07:21:16.208Z,90.90
2023-08-08T07:23:44.121Z,90.60
2023-08-08T07:26:13.446Z,90.60
2023-08-08T07:28:41.326Z,90.60
2023-08-08T07:31:09.866Z,90.70
2023-08-08T07:33:37.829Z,90.50
2023-08-08T07:36:06.393Z,90.10
2023-08-08T07:38:34.610Z,90.00
2023-08-08T07:41:02.580Z,89.40
2023-08-08T07:43:31.886Z,89.20
2023-08-08T07:46:00.967Z,88.90
2023-08-08T07:48:29.019Z,88.90
2023-08-08T07:50:59.665Z,88.80
2023-08-08T07:53:27.644Z,89.00
2023-08-08T07:55:55.606Z,88.30
2023-08-08T07:58:26.976Z,87.70
2023-08-08T08:01:01.696Z,87.00
2023-08-08T08:03:32.605Z,86.50
2023-08-08T08:06:00.869Z,86.60
2023-08-08T08:08:28.880Z,86.10
2023-08-08T08:10:56.875Z,84.80
2023-08-08T08:13:24.813Z,84.00
2023-08-08T08:15:52.839Z,84.80
2023-08-08T08:18:22.442Z,85.00
2023-08-08T08:20:51.303Z,83.60
2023-08-08T08:23:19.244Z,84.30
2023-08-08T08:25:47.629Z,83.80
2023-08-08T08:28:15.624Z,83.60
2023-08-08T08:30:44.265Z,83.10
2023-08-08T08:33:12.620Z,82.40
2023-08-08T08:35:41.968Z,82.80
2023-08-08T08:38:13.066Z,82.00
2023-08-08T08:40:43.350Z,80.90
2023-08-08T08:43:12.015Z,81.00
2023-08-08T08:45:41.248Z,81.90
2023-08-08T08:48:14.174Z,80.70
2023-08-08T08:50:45.004Z,80.70
2023-08-08T08:53:14.978Z,79.60
2023-08-08T08:55:45.067Z,80.10
2023-08-08T08:58:15.416Z,80.80
2023-08-08T09:00:44.601Z,79.30
2023-08-08T09:03:12.992Z,79.10
2023-08-08T09:05:43.210Z,78.30
2023-08-08T09:08:13.014Z,78.00
2023-08-08T09:10:41.800Z,78.20
2023-08-08T09:13:11.165Z,77.90
2023-08-08T09:15:39.241Z,77.80
2023-08-08T09:18:09.862Z,77.20
2023-08-08T09:20:37.927Z,77.30
2023-08-08T09:23:07.620Z,76.90
2023-08-08T09:25:35.813Z,75.10
2023-08-08T09:28:03.917Z,75.10
2023-08-08T09:30:34.185Z,75.10
2023-08-08T09:33:02.822Z,75.00
2023-08-08T09:35:32.049Z,75.80
2023-08-08T09:38:03.011Z,75.50
2023-08-08T09:40:32.821Z,75.90
2023-08-08T09:43:00.948Z,75.90
2023-08-08T09:45:28.925Z,76.50
2023-08-08T09:47:56.992Z,76.00
2023-08-08T09:50:25.149Z,74.90
2023-08-08T09:52:54.341Z,74.70
2023-08-08T09:55:22.844Z,75.10
2023-08-08T09:57:53.052Z,75.00
2023-08-08T10:00:22.061Z,74.60
2023-08-08T10:02:50.476Z,74.50
2023-08-08T10:05:19.158Z,73.60
2023-08-08T10:07:47.941Z,73.00
2023-08-08T10:10:20.037Z,73.00
2023-08-08T10:12:50.243Z,72.70
2023-08-08T10:15:19.711Z,72.60
2023-08-08T10:17:48.831Z,72.20
2023-08-08T10:20:22.228Z,72.50
2023-08-08T10:22:52.169Z,72.90
2023-08-08T10:25:21.707Z,72.60
2023-08-08T10:27:49.973Z,72.70
2023-08-08T10:30:19.621Z,71.90
2023-08-08T10:32:53.467Z,72.20
2023-08-08T10:35:21.864Z,72.00
2023-08-08T10:37:56.643Z,73.30
2023-08-08T10:40:24.749Z,71.60
2023-08-08T10:42:54.588Z,71.40
2023-08-08T10:45:32.101Z,71.70
2023-08-08T10:48:10.810Z,71.00
2023-08-08T10:50:42.792Z,71.10
2023-08-08T10:53:12.122Z,71.60
2023-08-08T10:55:40.340Z,71.50
2023-08-08T10:58:09.795Z,71.30
2023-08-08T11:00:41.755Z,71.20
2023-08-08T11:03:10.763Z,69.80
2023-08-08T11:05:40.501Z,69.90
2023-08-08T11:08:12.234Z,70.80
2023-08-08T11:10:41.564Z,70.30
2023-08-08T11:13:10.460Z,70.90
2023-08-08T11:15:40.421Z,71.20
2023-08-08T11:18:09.512Z,71.40
2023-08-08T11:20:39.681Z,71.30
2023-08-08T11:23:11.459Z,70.80
2023-08-08T11:25:41.843Z,70.00
2023-08-08T11:28:13.030Z,69.30
2023-08-08T11:30:45.319Z,68.10
2023-08-08T11:33:16.464Z,68.00
2023-08-08T11:35:49.988Z,67.40
2023-08-08T11:38:19.241Z,67.50
2023-08-08T11:40:47.267Z,67.90
2023-08-08T11:43:15.867Z,67.30
2023-08-08T11:45:46.330Z,67.30
2023-08-08T11:48:15.166Z,67.00
2023-08-08T11:50:45.540Z,67.00
2023-08-08T11:53:14.002Z,64.40
2023-08-08T11:55:42.915Z,66.20
2023-08-08T11:58:16.008Z,65.70
2023-08-08T12:00:48.449Z,65.90
2023-08-08T12:03:19.482Z,65.40
2023-08-08T12:05:48.287Z,65.40
2023-08-08T12:08:20.809Z,65.30
2023-08-08T12:10:54.549Z,64.60
2023-08-08T12:13:23.526Z,64.50
2023-08-08T12:15:56.153Z,65.10
2023-08-08T12:18:24.645Z,65.10
2023-08-08T12:20:52.684Z,65.10
2023-08-08T12:23:20.609Z,65.10
2023-08-08T12:25:49.183Z,66.30
2023-08-08T12:28:17.257Z,66.50
2023-08-08T12:30:45.353Z,66.00
2023-08-08T12:33:14.699Z,66.60
2023-08-08T12:35:42.829Z,66.30
2023-08-08T12:38:11.425Z,66.70
2023-08-08T12:40:39.389Z,67.00
2023-08-08T12:43:07.561Z,66.60
2023-08-08T12:45:35.425Z,66.50
2023-08-08T12:48:03.450Z,66.30
2023-08-08T12:50:32.871Z,65.70
2023-08-08T12:53:01.339Z,65.90
2023-08-08T12:55:31.965Z,66.00
2023-08-08T12:58:04.016Z,66.20
2023-08-08T13:00:32.335Z,66.10
2023-08-08T13:03:03.079Z,66.60
2023-08-08T13:05:32.695Z,65.80
2023-08-08T13:08:00.879Z,65.10
2023-08-08T13:10:30.139Z,65.30
2023-08-08T13:12:58.430Z,65.10
2023-08-08T13:15:26.364Z,65.20
2023-08-08T13:17:54.472Z,64.90
2023-08-08T13:20:23.157Z,64.80
2023-08-08T13:22:52.699Z,64.50
2023-08-08T13:25:20.836Z,64.20
2023-08-08T13:27:49.887Z,65.30
2023-08-08T13:30:18.234Z,65.50
2023-08-08T13:32:46.356Z,66.40
2023-08-08T13:35:14.342Z,66.50
2023-08-08T13:37:42.360Z,66.50
2023-08-08T13:40:12.863Z,67.10
2023-08-08T13:42:41.086Z,67.00
2023-08-08T13:45:11.330Z,67.10
2023-08-08T13:47:39.309Z,66.80
2023-08-08T13:50:08.870Z,66.60
2023-08-08T13:52:36.939Z,67.20
2023-08-08T13:55:05.442Z,66.20
2023-08-08T13:57:34.845Z,66.50
2023-08-08T14:00:02.920Z,66.20
2023-08-08T14:02:31.173Z,66.40
2023-08-08T14:04:59.668Z,66.10
2023-08-08T14:07:27.544Z,65.40
2023-08-08T14:09:55.765Z,65.20
2023-08-08T14:12:23.751Z,65.00
2023-08-08T14:14:53.127Z,65.10
2023-08-08T14:17:21.131Z,64.50
2023-08-08T14:19:49.400Z,65.60
2023-08-08T14:22:17.418Z,64.00
2023-08-08T14:24:46.185Z,65.10
2023-08-08T14:27:14.175Z,65.40
2023-08-08T14:29:42.086Z,65.00
2023-08-08T14:32:12.218Z,65.00
2023-08-08T14:34:40.476Z,65.30
2023-08-08T14:37:09.000Z,65.60
2023-08-08T14:39:37.008Z,65.10
2023-08-08T14:42:05.921Z,64.80
2023-08-08T14:44:34.228Z,64.10
2023-08-08T14:47:02.477Z,64.30
2023-08-08T14:49:32.073Z,64.20
2023-08-08T14:52:00.963Z,63.80
2023-08-08T14:54:29.251Z,64.20
2023-08-08T14:56:59.766Z,64.40
2023-08-08T14:59:27.904Z,64.00
2023-08-08T15:01:55.921Z,63.80
2023-08-08T15:04:23.880Z,62.80
2023-08-08T15:06:53.561Z,62.80
2023-08-08T15:09:21.600Z,61.40
2023-08-08T15:11:49.701Z,61.70
2023-08-08T15:14:17.609Z,62.40
2023-08-08T15:16:51.223Z,63.10
2023-08-08T15:19:20.406Z,62.60
2023-08-08T15:21:48.540Z,63.30
2023-08-08T15:24:18.441Z,63.30
2023-08-08T15:26:46.446Z,63.40
2023-08-08T15:29:14.362Z,63.60
2023-08-08T15:31:42.318Z,63.30
2023-08-08T15:34:10.889Z,63.40
2023-08-08T15:36:38.838Z,62.40
2023-08-08T15:39:09.618Z,61.60
2023-08-08T15:41:38.896Z,61.60
2023-08-08T15:44:07.653Z,60.80
2023-08-08T15:46:35.731Z,61.30
2023-08-08T15:49:05.520Z,61.10
2023-08-08T15:51:33.433Z,61.20
2023-08-08T15:54:01.439Z,61.10
2023-08-08T15:56:29.805Z,61.30
2023-08-08T15:59:00.338Z,61.40
2023-08-08T16:01:28.709Z,61.30
2023-08-08T16:03:56.747Z,62.20
2023-08-08T16:06:24.966Z,61.40
2023-08-08T16:08:53.798Z,61.60
2023-08-08T16:11:21.840Z,61.70
2023-08-08T16:13:49.855Z,61.50
2023-08-08T16:16:19.622Z,61.30
2023-08-08T16:18:48.272Z,61.20
2023-08-08T16:21:16.150Z,61.30
2023-08-08T16:23:44.146Z,61.50
2023-08-08T16:26:12.147Z,61.70
2023-08-08T16:28:40.077Z,62.20
2023-08-08T16:31:08.446Z,62.30
2023-08-08T16:33:38.046Z,63.00
2023-08-08T16:36:07.555Z,63.20
2023-08-08T16:38:37.381Z,63.80
2023-08-08T16:41:05.808Z,64.00
2023-08-08T16:43:38.203Z,64.70
2023-08-08T16:46:06.598Z,65.00
2023-08-08T16:48:34.680Z,65.30
2023-08-08T16:51:04.098Z,65.30
2023-08-08T16:53:32.231Z,65.70
2023-08-08T16:56:03.711Z,65.50
2023-08-08T16:58:31.808Z,65.70
2023-08-08T17:01:02.522Z,66.00
2023-08-08T17:03:30.657Z,66.70
2023-08-08T17:05:58.907Z,66.00
2023-08-08T17:08:30.349Z,66.60
2023-08-08T17:10:58.719Z,68.90
2023-08-08T17:13:26.674Z,67.90
2023-08-08T17:15:54.547Z,67.70
2023-08-08T17:18:22.533Z,68.90
2023-08-08T17:20:50.526Z,68.80
2023-08-08T17:23:18.539Z,68.70
2023-08-08T17:25:48.023Z,69.30
2023-08-08T17:28:15.994Z,69.90
2023-08-08T17:30:43.992Z,70.10
2023-08-08T17:33:11.906Z,70.90
2023-08-08T17:35:39.910Z,71.80
2023-08-08T17:38:07.871Z,71.60
2023-08-08T17:40:36.133Z,72.30
2023-08-08T17:43:05.645Z,72.80
2023-08-08T17:45:33.789Z,73.70
2023-08-08T17:48:01.857Z,74.50
2023-08-08T17:50:31.429Z,74.40
2023-08-08T17:52:59.821Z,74.20
2023-08-08T17:55:27.882Z,76.20
2023-08-08T17:57:55.793Z,75.50
2023-08-08T18:00:25.315Z,75.90
2023-08-08T18:02:53.345Z,75.80
2023-08-08T18:05:21.470Z,75.60
2023-08-08T18:07:49.665Z,75.60
2023-08-08T18:10:17.591Z,76.10
2023-08-08T18:12:46.315Z,76.10
2023-08-08T18:15:14.371Z,76.90
2023-08-08T18:17:43.711Z,77.30
2023-08-08T18:20:12.936Z,77.70
2023-08-08T18:22:40.856Z,78.50
2023-08-08T18:25:11.553Z,78.80
2023-08-08T18:27:39.510Z,78.70
2023-08-08T18:30:08.939Z,79.30
2023-08-08T18:32:36.924Z,78.80
2023-08-08T18:35:08.313Z,79.10
2023-08-08T18:37:37.572Z,79.70
2023-08-08T18:40:07.230Z,79.60
2023-08-08T18:42:35.800Z,80.30
2023-08-08T18:45:03.884Z,80.30
2023-08-08T18:47:31.972Z,80.20
2023-08-08T18:50:00.367Z,79.80
2023-08-08T18:52:29.873Z,80.10
2023-08-08T18:54:57.757Z,80.00
2023-08-08T18:57:25.789Z,81.90
2023-08-08T18:59:53.845Z,82.50
2023-08-08T19:02:21.898Z,82.40
2023-08-08T19:04:50.375Z,83.10
2023-08-08T19:07:18.486Z,82.60
2023-08-08T19:09:47.754Z,82.80
2023-08-08T19:12:15.665Z,82.90
2023-08-08T19:14:43.550Z,82.80
2023-08-08T19:17:11.535Z,82.50
2023-08-08T19:19:39.460Z,82.80
2023-08-08T19:22:07.653Z,82.70
2023-08-08T19:24:36.013Z,82.70
2023-08-08T19:27:05.429Z,82.90
2023-08-08T19:29:33.898Z,83.30
2023-08-08T19:32:02.149Z,83.30
2023-08-08T19:34:30.483Z,83.60
2023-08-08T19:37:00.322Z,85.60
2023-08-08T19:39:30.065Z,84.40
2023-08-08T19:41:58.078Z,84.50
2023-08-08T19:44:27.625Z,84.60
2023-08-08T19:46:56.908Z,84.70
2023-08-08T19:49:24.797Z,85.10
2023-08-08T19:51:52.684Z,87.10
2023-08-08T19:54:20.666Z,87.10
2023-08-08T19:56:48.627Z,87.00
2023-08-08T19:59:17.225Z,86.70
2023-08-08T20:01:46.610Z,86.50
2023-08-08T20:04:14.966Z,86.70
2023-08-08T20:06:42.976Z,86.50
2023-08-08T20:09:11.966Z,86.60
2023-08-08T20:11:42.462Z,86.80
2023-08-08T20:14:10.850Z,86.80
2023-08-08T20:16:38.908Z,86.90
2023-08-08T20:19:08.694Z,87.10
2023-08-08T20:21:36.725Z,87.00
2023-08-08T20:24:08.582Z,87.20
2023-08-08T20:26:37.136Z,87.50
2023-08-08T20:29:05.440Z,87.70
2023-08-08T20:31:33.741Z,87.80
2023-08-08T20:34:02.092Z,87.60
2023-08-08T20:36:31.667Z,87.90
2023-08-08T20:39:03.485Z,88.30
2023-08-08T20:41:31.459Z,88.10
2023-08-08T20:44:04.994Z,88.60
2023-08-08T20:46:32.949Z,90.40
2023-08-08T20:49:00.930Z,90.10
2023-08-08T20:51:28.860Z,90.10
2023-08-08T20:53:58.600Z,90.00
2023-08-08T20:56:26.529Z,90.00
2023-08-08T20:58:56.381Z,90.00
2023-08-08T21:01:24.344Z,90.00
2023-08-08T21:03:52.811Z,90.00
2023-08-08T21:06:20.806Z,90.00
2023-08-08T21:08:48.838Z,90.00
2023-08-08T21:11:18.686Z,89.20
2023-08-08T21:13:47.546Z,90.20
2023-08-08T21:16:16.203Z,90.30
2023-08-08T21:18:44.188Z,90.40
2023-08-08T21:21:12.071Z,90.40
2023-08-08T21:23:40.028Z,90.40
2023-08-08T21:26:08.012Z,90.40
2023-08-08T21:28:37.387Z,90.60
2023-08-08T21:31:05.385Z,90.60
2023-08-08T21:33:33.352Z,90.50
2023-08-08T21:36:01.350Z,90.50
2023-08-08T21:38:30.008Z,90.50
2023-08-08T21:40:57.971Z,90.40
2023-08-08T21:43:26.040Z,90.50
2023-08-08T21:45:55.344Z,90.50
2023-08-08T21:48:23.381Z,90.70
2023-08-08T21:50:51.307Z,90.90
2023-08-08T21:53:20.060Z,91.10
2023-08-08T21:55:48.499Z,91.00
2023-08-08T21:58:16.453Z,91.00
2023-08-08T22:00:44.363Z,90.90
2023-08-08T22:03:13.769Z,90.90
2023-08-08T22:05:41.888Z,91.00
2023-08-08T22:08:10.581Z,91.00
2023-08-08T22:10:38.856Z,90.80
2023-08-08T22:13:09.048Z,90.90
2023-08-08T22:15:37.226Z,91.00
2023-08-08T22:18:15.028Z,90.90
2023-08-08T22:20:43.612Z,91.20
2023-08-08T22:23:19.606Z,90.90
2023-08-08T22:25:49.813Z,90.90
2023-08-08T22:28:18.139Z,90.90
2023-08-08T22:30:46.302Z,90.90
2023-08-08T22:33:15.671Z,90.90
2023-08-08T22:35:43.625Z,91.20
2023-08-08T22:38:11.515Z,91.10
2023-08-08T22:40:39.501Z,91.10
2023-08-08T22:43:07.671Z,91.10
2023-08-08T22:45:35.767Z,91.10
2023-08-08T22:48:03.869Z,91.20
2023-08-08T22:50:33.333Z,91.20
2023-08-08T22:53:01.275Z,91.70
2023-08-08T22:55:29.845Z,91.70
2023-08-08T22:57:57.721Z,91.60
2023-08-08T23:00:26.118Z,91.80
2023-08-08T23:02:54.065Z,91.80
2023-08-08T23:05:22.379Z,91.70
2023-08-08T23:07:51.679Z,91.80
2023-08-08T23:10:22.245Z,91.70
2023-08-08T23:12:50.382Z,91.60
2023-08-08T23:15:18.675Z,91.60
2023-08-08T23:17:46.600Z,91.60
2023-08-08T23:20:14.565Z,91.60
2023-08-08T23:22:42.476Z,91.70
2023-08-08T23:25:11.991Z,91.80
2023-08-08T23:27:39.967Z,91.90
2023-08-08T23:30:10.177Z,91.90
2023-08-08T23:32:40.762Z,92.10
2023-08-08T23:35:12.367Z,92.00
2023-08-08T23:37:40.433Z,92.10
2023-08-08T23:40:12.439Z,92.20
2023-08-08T23:42:41.766Z,92.20
2023-08-08T23:45:11.579Z,92.20
2023-08-08T23:47:40.322Z,92.20
2023-08-08T23:50:09.771Z,92.50
2023-08-08T23:52:37.964Z,92.50
2023-08-08T23:55:07.734Z,93.10
2023-08-08T23:57:35.711Z,92.90
